LICBLICJ

Guest
Details From LICB - Magliocco
To LICJ - PALERMO
Flight Number -
Tags generated
Created
Modified
Stats Distance 102 nm / 189 km
Max Altitude 2,000 ft / 610 m
Waypoints 3
Social Downloads 2
Likes 0
Share VATSIM

Download

Looking for another format? Having issues loading an existing format? Contact us
Advertisement - Login to hide

Notes

Basic altitude profile: - Ascent Rate: 2500ft/min - Ascent Speed: 250kts - Cruise Altitude: 35000ft - Cruise Speed: 420kts - Descent Rate: 1500ft/min - Descent Speed: 250kts Options: - Use NATs: yes - Use PACOTS: yes - Use low airways: yes - Use high airways: yes

Route

LICB PAL LICJ

ID Type Via Altitude Latitude Longitude Leg Dist Tot Dist Heading (true) Name
O LICB APT - 0 ft / 0 m 36.99403˚ 14.60627˚ - 0 nm - Magliocco
PAL VOR - 2,000 ft / 610 m 38.03389˚ 13.17750˚ 92 nm 92 nm 313° / 312° PALERMO VOR-DME
O LICJ APT - 0 ft / 0 m 38.17738˚ 13.09704˚ 9 nm 101 nm 336° / 336° PALERMO

Altitude Profile

Advertisement - Login to hide

LICB

Details ICAO LICB
Name Magliocco
Region Italy
Timezone Europe/Rome (UTC+1.0)
Stats Elevation 757 ft / 231 m (AMSL)
Location 36.994031° 14.606274°
Runways 1
Magnetic Variation 3.114° E

METAR

LICB 151350Z 23010KT 190V260 9999 FEW030 16/11 Q1012

Decode

TAF

Not found

Departure Runways

ID Width Length Bearing (true) Bearing (mag) Surface Threshold Offset Overrun Length
05 147 ft / 45 m 8,334 ft / 2,540 m 49.99° 46.88° Asphalt 196 ft / 60 m 452 ft / 138 m
23 147 ft / 45 m 8,334 ft / 2,540 m 230.01° 226.90° Asphalt 0 ft / 0 m 0 ft / 0 m

LICJ

Details ICAO LICJ (PMO)
Name PALERMO
Region Italy
Timezone Europe/Rome (UTC+1.0)
Stats Elevation 65 ft / 20 m (AMSL)
Location 38.177377° 13.097035°
Runways 2
Magnetic Variation 2.950° E

METAR

LICJ 151420Z 21017KT CAVOK 18/08 Q1007

Decode

TAF

TAF LICJ 151100Z 1512/1612 21020G30KT 9999 SCT030 TEMPO 1600/1606 RA BECMG 1602/1604 28014KT

Decode

Destination Runways

ID Width Length Bearing (true) Bearing (mag) Surface Threshold Offset Overrun Length
02 148 ft / 45 m 6,813 ft / 2,077 m 23.81° 20.86° Asphalt 10 ft / 3 m 0 ft / 0 m
07 197 ft / 60 m 10,685 ft / 3,257 m 66.82° 63.87° Asphalt 404 ft / 123 m 0 ft / 0 m
20 148 ft / 45 m 6,813 ft / 2,077 m 203.81° 200.86° Asphalt 10 ft / 3 m 0 ft / 0 m
25 197 ft / 60 m 10,685 ft / 3,257 m 246.85° 243.90° Asphalt 679 ft / 207 m 0 ft / 0 m

Approach Navaids

Runway Type Ident Frequency Range Bearing (true) Bearing (mag) Slope Elevation
20 Localiser ITO 110.55 MHz 18 nm / 33 km 203.81° 200.86° - 65 ft / 20 m (AMSL)
20 Glidescope ITO 110.55 MHz 10 nm / 19 km 203.81° 200.86° 3.00° 65 ft / 20 m (AMSL)
20 DME ITO 110.55 MHz 18 nm / 33 km - - - 38 ft / 12 m (AMSL)
25 Localiser RAI 109.50 MHz 18 nm / 33 km 246.82° 243.87° - 65 ft / 20 m (AMSL)
25 Glidescope RAI 109.50 MHz 10 nm / 19 km 246.84° 243.88° 3.00° 65 ft / 20 m (AMSL)
25 DME RAI 109.50 MHz 18 nm / 33 km - - - 65 ft / 20 m (AMSL)